Time;durP1;ratioP1;P1;durP2;ratioP2;P2;SDS_P1;SDS_P2;PMS_P1;PMS_P2;Temp;Humidity;BMP_temperature;BMP_pressure;BME280_temperature;BME280_humidity;BME280_pressure;Samples;Min_cycle;Max_cycle;Signal;HPM_P1;HPM_P2
2022/11/29 00:01:25;;;;;;;23.92;8.73;;;9.30;98.70;;;;;;4859559;29;20529;-89
2022/11/29 00:03:55;;;;;;;23.35;8.50;;;9.30;98.70;;;;;;4865771;29;20564;-88
2022/11/29 00:06:28;;;;;;;22.20;8.32;;;9.30;98.70;;;;;;4851391;29;20054;-89
2022/11/29 00:09:02;;;;;;;22.95;7.25;;;9.30;98.70;;;;;;4859387;29;20109;-89
2022/11/29 00:14:21;;;;;;;22.05;8.38;;;9.30;98.70;;;;;;4877285;29;20586;-84
2022/11/29 00:16:53;;;;;;;22.10;8.13;;;9.30;98.70;;;;;;4865411;29;20056;-84
2022/11/29 00:19:21;;;;;;;19.73;7.47;;;9.30;98.70;;;;;;4870029;29;20149;-84
2022/11/29 00:21:48;;;;;;;20.70;6.90;;;9.20;98.70;;;;;;4867628;29;20512;-84
2022/11/29 00:24:16;;;;;;;20.95;8.68;;;9.20;98.70;;;;;;4843725;29;20502;-89
2022/11/29 00:26:43;;;;;;;26.13;9.20;;;9.20;98.70;;;;;;4869120;29;20041;-89
2022/11/29 00:29:11;;;;;;;32.55;10.95;;;9.20;98.70;;;;;;4865478;29;20052;-89
2022/11/29 00:31:39;;;;;;;33.83;11.32;;;9.20;98.70;;;;;;4847143;29;20049;-89
2022/11/29 00:34:08;;;;;;;39.67;11.68;;;9.20;98.70;;;;;;4850965;29;20060;-89
2022/11/29 00:36:36;;;;;;;22.63;9.15;;;9.20;98.70;;;;;;4848938;29;20045;-89
2022/11/29 00:39:04;;;;;;;28.02;9.85;;;9.20;98.80;;;;;;4867931;29;20503;-89
2022/11/29 00:41:32;;;;;;;35.47;11.95;;;9.10;98.70;;;;;;4864606;29;20053;-89
2022/11/29 00:43:59;;;;;;;30.92;9.77;;;9.20;98.70;;;;;;4848392;29;20507;-88
2022/11/29 00:46:26;;;;;;;29.02;9.75;;;9.10;98.70;;;;;;4864788;29;20140;-88
2022/11/29 00:48:53;;;;;;;28.77;8.80;;;9.10;98.70;;;;;;4867439;29;20073;-88
2022/11/29 00:51:20;;;;;;;27.92;10.15;;;9.10;98.70;;;;;;4862093;29;20057;-89
2022/11/29 00:53:49;;;;;;;30.88;10.13;;;9.10;98.70;;;;;;4850972;29;20048;-89
2022/11/29 00:56:18;;;;;;;28.75;9.18;;;9.10;98.70;;;;;;4864930;29;20045;-89
2022/11/29 00:58:48;;;;;;;31.17;10.95;;;9.10;98.70;;;;;;4853856;29;20156;-88
2022/11/29 01:01:15;;;;;;;23.67;8.82;;;9.10;98.70;;;;;;4864862;29;20045;-87
2022/11/29 01:03:54;;;;;;;24.83;8.23;;;9.10;98.70;;;;;;4844111;29;20058;-89
2022/11/29 01:06:21;;;;;;;22.30;7.18;;;9.10;98.70;;;;;;4859333;29;20060;-89
2022/11/29 01:08:49;;;;;;;21.85;7.50;;;9.10;98.70;;;;;;4865922;29;20065;-89
2022/11/29 01:11:25;;;;;;;19.60;6.93;;;9.10;98.70;;;;;;4866509;29;20052;-89
2022/11/29 01:13:56;;;;;;;19.88;7.78;;;9.10;98.70;;;;;;4861474;29;20060;-89
2022/11/29 01:16:24;;;;;;;17.48;6.25;;;9.10;98.80;;;;;;4864610;29;20046;-89
2022/11/29 01:18:53;;;;;;;22.38;7.65;;;9.10;98.80;;;;;;4847504;29;20144;-89
2022/11/29 01:21:24;;;;;;;21.88;8.40;;;9.20;98.80;;;;;;4863311;29;20070;-89
2022/11/29 01:23:52;;;;;;;24.17;7.70;;;9.20;98.70;;;;;;4863009;29;20041;-89
2022/11/29 01:26:23;;;;;;;21.77;7.88;;;9.20;98.70;;;;;;4862418;29;20045;-89
2022/11/29 01:28:52;;;;;;;22.67;6.97;;;9.20;98.70;;;;;;4874512;29;20579;-89
2022/11/29 01:31:30;;;;;;;18.23;7.22;;;9.20;98.70;;;;;;4866361;29;20056;-89
2022/11/29 01:34:02;;;;;;;16.92;6.20;;;9.20;98.70;;;;;;4844078;29;20548;-89
2022/11/29 01:36:29;;;;;;;20.80;7.30;;;9.20;98.70;;;;;;4871672;29;20523;-89
2022/11/29 01:38:58;;;;;;;18.00;5.88;;;9.20;98.70;;;;;;4865577;29;20684;-89
2022/11/29 01:41:28;;;;;;;14.30;5.13;;;9.20;98.70;;;;;;4881086;29;20145;-88
2022/11/29 01:44:05;;;;;;;21.95;6.35;;;9.20;98.70;;;;;;4845263;29;20428;-89
2022/11/29 01:46:37;;;;;;;22.90;7.20;;;9.20;98.70;;;;;;4880905;29;20049;-88
2022/11/29 01:49:16;;;;;;;21.13;6.88;;;9.20;98.70;;;;;;4850120;29;20053;-89
2022/11/29 01:52:00;;;;;;;28.83;8.07;;;9.20;98.70;;;;;;4849966;29;20147;-89
2022/11/29 01:54:28;;;;;;;20.70;7.05;;;9.20;98.70;;;;;;4880795;29;20424;-89
2022/11/29 01:56:57;;;;;;;20.00;6.30;;;9.20;98.70;;;;;;4865049;29;20056;-89
2022/11/29 01:59:30;;;;;;;20.10;6.28;;;9.20;98.70;;;;;;4848836;29;20524;-89
2022/11/29 02:02:05;;;;;;;19.88;6.15;;;9.20;98.70;;;;;;4867973;29;20045;-88
2022/11/29 02:04:34;;;;;;;19.08;6.72;;;9.20;98.70;;;;;;4880447;29;20136;-88
2022/11/29 02:07:01;;;;;;;19.77;6.85;;;9.20;98.70;;;;;;4879988;29;20048;-88
2022/11/29 02:09:29;;;;;;;17.95;6.07;;;9.20;98.70;;;;;;4880424;29;20053;-89
2022/11/29 02:12:16;;;;;;;20.30;7.22;;;9.10;98.70;;;;;;4864812;29;20120;-89
2022/11/29 02:15:12;;;;;;;17.27;5.47;;;9.20;98.70;;;;;;4880455;29;20049;-89
2022/11/29 02:17:47;;;;;;;26.15;7.68;;;9.10;98.70;;;;;;4853288;29;20144;-88
2022/11/29 02:20:26;;;;;;;;;;;9.10;98.70;;;;;;4880527;29;20049;-88
2022/11/29 02:23:23;;;;;;;20.60;6.38;;;9.00;98.80;;;;;;4852436;29;20344;-88
2022/11/29 02:25:53;;;;;;;19.50;6.30;;;9.10;98.80;;;;;;4879983;29;20044;-89
2022/11/29 02:28:48;;;;;;;19.25;7.28;;;9.00;98.80;;;;;;4880100;29;20064;-88
2022/11/29 02:31:49;;;;;;;18.98;6.43;;;9.10;98.80;;;;;;4854847;29;20054;-89
2022/11/29 02:34:54;;;;;;;17.17;5.18;;;9.10;98.70;;;;;;4855747;29;20154;-89
2022/11/29 02:37:39;;;;;;;18.25;5.05;;;9.10;98.70;;;;;;4854280;29;20146;-88
2022/11/29 02:40:36;;;;;;;18.10;5.13;;;9.10;98.80;;;;;;4876744;29;20053;-89
2022/11/29 02:43:28;;;;;;;21.40;6.30;;;9.10;98.80;;;;;;4863592;29;20053;-88
2022/11/29 02:46:19;;;;;;;16.80;6.40;;;9.10;98.70;;;;;;4843165;29;20098;-89
2022/11/29 02:48:59;;;;;;;16.60;5.65;;;9.10;98.70;;;;;;4843176;29;20501;-88
2022/11/29 02:51:33;;;;;;;18.67;5.38;;;9.10;98.70;;;;;;4854224;29;20050;-89
2022/11/29 02:54:06;;;;;;;15.48;5.15;;;9.10;98.80;;;;;;4861164;29;20057;-88
2022/11/29 02:57:08;;;;;;;17.48;5.20;;;9.10;98.80;;;;;;4874072;29;20117;-88
2022/11/29 02:59:50;;;;;;;18.15;4.85;;;9.10;98.70;;;;;;4876223;29;20460;-89
2022/11/29 03:02:51;;;;;;;14.83;4.73;;;9.10;98.70;;;;;;4873285;29;20442;-89
2022/11/29 03:05:49;;;;;;;14.38;4.60;;;9.10;98.70;;;;;;4861591;29;20155;-89
2022/11/29 03:08:45;;;;;;;13.77;5.05;;;9.10;98.70;;;;;;4829198;29;20149;-89
2022/11/29 03:11:31;;;;;;;20.92;6.55;;;9.10;98.70;;;;;;4879584;29;20053;-89
2022/11/29 03:14:27;;;;;;;25.67;8.88;;;9.20;98.70;;;;;;4861883;29;20516;-88
2022/11/29 03:17:29;;;;;;;22.48;7.25;;;9.10;98.70;;;;;;4870110;29;20056;-89
2022/11/29 03:20:06;;;;;;;36.03;9.23;;;9.10;98.70;;;;;;4866886;29;20443;-84
2022/11/29 03:23:06;;;;;;;27.88;7.97;;;9.00;98.70;;;;;;4861584;29;20571;-89
2022/11/29 03:25:42;;;;;;;22.00;8.52;;;9.10;98.70;;;;;;4836063;29;20041;-89
2022/11/29 03:28:23;;;;;;;28.85;9.50;;;9.00;98.70;;;;;;4862902;29;20042;-89
2022/11/29 03:31:25;;;;;;;24.48;8.23;;;9.00;98.70;;;;;;4878879;29;20071;-89
2022/11/29 03:34:00;;;;;;;29.63;9.57;;;9.00;98.70;;;;;;4854890;29;20049;-89
2022/11/29 03:36:56;;;;;;;29.00;9.05;;;9.00;98.70;;;;;;4871769;29;20125;-89
2022/11/29 03:39:43;;;;;;;25.75;9.45;;;9.00;98.70;;;;;;4843610;29;20045;-89
2022/11/29 03:42:24;;;;;;;23.95;8.00;;;9.00;98.70;;;;;;4865914;29;20045;-89
2022/11/29 03:45:11;;;;;;;19.85;6.97;;;9.00;98.70;;;;;;4866123;29;20054;-88
2022/11/29 03:47:58;;;;;;;20.55;6.68;;;9.00;98.70;;;;;;4856894;29;20077;-88
2022/11/29 03:50:42;;;;;;;19.55;6.72;;;9.00;98.70;;;;;;4870017;29;20109;-88
2022/11/29 03:53:15;;;;;;;22.27;7.28;;;9.00;98.70;;;;;;4865781;29;20076;-89
2022/11/29 03:55:53;;;;;;;18.75;6.15;;;9.00;98.70;;;;;;4878089;29;20041;-88
2022/11/29 03:58:48;;;;;;;18.85;7.47;;;9.00;98.70;;;;;;4857115;29;20113;-88
2022/11/29 04:01:21;;;;;;;26.05;8.85;;;9.00;98.70;;;;;;4846201;29;20049;-88
2022/11/29 04:04:20;;;;;;;28.20;8.95;;;9.00;98.70;;;;;;4869600;29;20172;-88
2022/11/29 04:06:53;;;;;;;23.52;7.35;;;9.00;98.60;;;;;;4868454;29;20053;-88
2022/11/29 04:09:39;;;;;;;21.42;8.10;;;9.00;98.70;;;;;;4878068;29;20049;-88
2022/11/29 04:12:47;;;;;;;18.20;6.45;;;9.00;98.70;;;;;;4856183;29;20053;-88
2022/11/29 04:15:21;;;;;;;17.88;6.40;;;9.00;98.70;;;;;;4869597;29;20092;-88
2022/11/29 04:18:13;;;;;;;19.85;5.53;;;9.00;98.70;;;;;;4859668;29;20053;-89
2022/11/29 04:21:13;;;;;;;15.93;6.70;;;9.10;98.70;;;;;;4857705;29;20152;-89
2022/11/29 04:23:59;;;;;;;16.70;6.18;;;9.10;98.70;;;;;;4878142;29;20045;-88
2022/11/29 04:27:05;;;;;;;22.02;6.68;;;9.10;98.70;;;;;;4875562;29;20054;-88
2022/11/29 04:30:02;;;;;;;19.25;5.47;;;9.00;98.70;;;;;;4866844;29;20053;-88
2022/11/29 04:32:41;;;;;;;17.38;5.65;;;9.10;98.70;;;;;;4873113;29;20052;-88
2022/11/29 04:35:31;;;;;;;12.35;4.28;;;9.00;98.70;;;;;;4876147;29;20088;-89
2022/11/29 04:38:25;;;;;;;18.27;5.68;;;9.00;98.70;;;;;;4877736;29;20053;-88
2022/11/29 04:41:14;;;;;;;18.98;4.97;;;9.00;98.70;;;;;;4841133;29;20045;-89
2022/11/29 04:44:26;;;;;;;20.02;5.05;;;9.00;98.70;;;;;;4844267;29;20045;-89
2022/11/29 04:47:02;;;;;;;16.73;5.25;;;9.10;98.70;;;;;;4850072;29;20088;-87
2022/11/29 04:49:50;;;;;;;16.88;5.75;;;9.10;98.70;;;;;;4862652;29;20053;-88
2022/11/29 04:52:23;;;;;;;18.63;5.35;;;9.00;98.70;;;;;;4855562;29;20053;-89
2022/11/29 04:55:20;;;;;;;19.30;5.88;;;9.00;98.70;;;;;;4881669;29;20078;-88
2022/11/29 04:58:30;;;;;;;13.43;4.65;;;9.00;98.60;;;;;;4876361;29;20140;-88
2022/11/29 05:01:14;;;;;;;15.10;4.57;;;9.00;98.60;;;;;;4853184;29;20110;-87
2022/11/29 05:04:21;;;;;;;15.95;4.03;;;9.00;98.60;;;;;;4863074;29;20046;-89
2022/11/29 05:07:04;;;;;;;16.30;4.85;;;9.10;98.70;;;;;;4867045;29;20132;-88
2022/11/29 05:09:31;;;;;;;;;;;9.10;98.70;;;;;;4881804;29;20555;-88
2022/11/29 05:12:28;;;;;;;10.68;3.28;;;9.00;98.70;;;;;;4881302;29;19951;-89
2022/11/29 05:15:13;;;;;;;13.80;4.10;;;9.00;98.70;;;;;;4878250;29;20519;-88
2022/11/29 05:18:02;;;;;;;14.27;3.85;;;9.00;98.70;;;;;;4881416;29;20144;-89
2022/11/29 05:20:53;;;;;;;17.23;5.15;;;9.10;98.70;;;;;;4865645;29;20112;-89
2022/11/29 05:23:48;;;;;;;14.05;4.43;;;9.10;98.70;;;;;;4861294;29;20148;-89
2022/11/29 05:26:31;;;;;;;14.02;4.20;;;9.10;98.70;;;;;;4854828;29;20053;-88
2022/11/29 05:29:08;;;;;;;12.48;3.90;;;9.10;98.70;;;;;;4881018;29;20109;-88
2022/11/29 05:31:38;;;;;;;16.45;4.82;;;9.10;98.70;;;;;;4862869;29;20050;-88
2022/11/29 05:34:25;;;;;;;20.42;5.80;;;9.10;98.70;;;;;;4862011;29;20057;-88
2022/11/29 05:37:20;;;;;;;16.58;4.80;;;9.10;99.00;;;;;;4865384;29;20049;-88
2022/11/29 05:40:02;;;;;;;17.25;5.68;;;9.10;98.70;;;;;;4880771;29;20500;-88
2022/11/29 05:43:02;;;;;;;20.55;5.22;;;9.10;98.70;;;;;;4865135;29;20131;-88
2022/11/29 05:45:46;;;;;;;20.33;6.97;;;9.10;98.70;;;;;;4864812;29;20049;-88
2022/11/29 05:48:50;;;;;;;21.95;6.90;;;9.10;98.60;;;;;;4862121;29;20065;-88
2022/11/29 05:51:35;;;;;;;20.45;6.05;;;9.10;98.60;;;;;;4867981;29;20139;-88
2022/11/29 05:54:24;;;;;;;18.70;5.07;;;9.00;98.60;;;;;;4863362;29;20501;-88
2022/11/29 05:57:32;;;;;;;18.65;5.45;;;9.10;98.60;;;;;;4856536;29;20080;-88
2022/11/29 06:00:01;;;;;;;16.83;5.90;;;9.00;98.60;;;;;;4843144;29;20053;-89
2022/11/29 06:03:02;;;;;;;19.83;5.82;;;9.00;98.60;;;;;;4871464;29;20074;-88
2022/11/29 06:05:35;;;;;;;22.05;6.82;;;9.00;98.60;;;;;;4867818;29;20077;-87
2022/11/29 06:08:42;;;;;;;23.92;7.97;;;9.00;98.60;;;;;;4850952;29;20045;-88
2022/11/29 06:11:41;;;;;;;27.77;8.73;;;9.00;98.60;;;;;;4862626;29;20049;-88
2022/11/29 06:14:21;;;;;;;19.55;7.15;;;9.00;98.60;;;;;;4863000;29;20124;-93
2022/11/29 06:17:09;;;;;;;26.88;8.07;;;9.00;98.70;;;;;;4862758;29;20073;-89
2022/11/29 06:19:55;;;;;;;27.27;8.30;;;9.00;98.70;;;;;;4863824;29;20181;-88
2022/11/29 06:22:34;;;;;;;27.02;7.25;;;9.00;98.60;;;;;;4870549;29;20045;-88
2022/11/29 06:25:22;;;;;;;38.03;11.57;;;9.00;98.60;;;;;;4880173;29;20048;-88
2022/11/29 06:28:03;;;;;;;39.22;11.57;;;9.00;98.60;;;;;;4846939;29;20049;-88
2022/11/29 06:30:47;;;;;;;32.33;9.23;;;8.90;98.60;;;;;;4868138;29;20105;-88
2022/11/29 06:33:27;;;;;;;37.30;10.30;;;8.90;98.60;;;;;;4880237;29;20121;-88
2022/11/29 06:36:26;;;;;;;36.63;10.95;;;8.90;98.60;;;;;;4865193;29;20055;-90
2022/11/29 06:38:54;;;;;;;31.35;9.98;;;8.90;98.60;;;;;;4863208;29;20045;-88
2022/11/29 06:41:25;;;;;;;32.03;8.50;;;8.90;98.60;;;;;;4879581;29;20160;-87
2022/11/29 06:43:53;;;;;;;34.63;9.38;;;8.90;98.60;;;;;;4845904;29;20088;-88
2022/11/29 06:46:23;;;;;;;32.63;11.05;;;8.90;98.60;;;;;;4868878;29;20136;-89
2022/11/29 06:49:02;;;;;;;37.85;10.15;;;8.80;98.80;;;;;;4880010;29;20055;-88
2022/11/29 06:51:56;;;;;;;33.92;8.50;;;8.80;98.60;;;;;;4852765;29;20067;-85
2022/11/29 06:54:57;;;;;;;33.25;8.70;;;8.80;98.60;;;;;;4870517;29;20052;-96
2022/11/29 06:57:45;;;;;;;19.85;6.35;;;8.80;98.60;;;;;;4876421;29;20148;-91
2022/11/29 07:00:22;;;;;;;15.80;4.88;;;8.80;98.70;;;;;;4870744;29;20049;-92
2022/11/29 07:03:11;;;;;;;17.70;6.15;;;8.80;98.70;;;;;;4865293;29;20102;-91
2022/11/29 07:05:39;;;;;;;13.73;4.38;;;8.90;98.80;;;;;;4880336;29;20129;-91
2022/11/29 07:08:21;;;;;;;14.98;4.47;;;8.90;98.80;;;;;;4880265;29;20049;-92
2022/11/29 07:10:55;;;;;;;14.38;5.10;;;8.90;98.70;;;;;;4877613;29;20049;-85
2022/11/29 07:13:22;;;;;;;18.13;4.90;;;8.90;98.70;;;;;;4853768;29;20543;-85
2022/11/29 07:16:10;;;;;;;14.57;6.10;;;8.90;98.70;;;;;;4862661;29;20057;-84
2022/11/29 07:19:03;;;;;;;17.52;5.63;;;8.90;98.70;;;;;;4867020;29;20045;-85
2022/11/29 07:22:06;;;;;;;14.95;4.25;;;8.90;98.80;;;;;;4859263;29;20050;-85
2022/11/29 07:25:18;;;;;;;16.13;4.47;;;8.90;98.70;;;;;;4873386;29;20097;-85
2022/11/29 07:28:01;;;;;;;12.30;4.20;;;8.90;98.70;;;;;;4875030;29;20053;-86
2022/11/29 07:30:49;;;;;;;17.75;5.47;;;8.90;98.70;;;;;;4871044;29;20048;-86
2022/11/29 07:33:40;;;;;;;14.05;4.13;;;8.90;98.70;;;;;;4865657;29;20056;-86
2022/11/29 07:36:10;;;;;;;18.90;6.45;;;8.90;98.70;;;;;;4869592;29;20149;-85
2022/11/29 07:39:16;;;;;;;21.67;7.38;;;8.90;98.70;;;;;;4873439;29;20064;-86
2022/11/29 07:42:02;;;;;;;31.42;8.70;;;8.90;98.60;;;;;;4860386;29;20493;-85
2022/11/29 07:44:45;;;;;;;30.13;9.73;;;8.90;98.70;;;;;;4871697;29;20053;-85
2022/11/29 07:47:13;;;;;;;29.63;8.55;;;8.80;98.60;;;;;;4857456;29;20052;-85
2022/11/29 07:49:40;;;;;;;29.20;8.52;;;8.80;98.60;;;;;;4865761;29;20060;-85
2022/11/29 07:52:13;;;;;;;23.88;8.93;;;8.80;98.70;;;;;;4847753;29;20054;-85
2022/11/29 07:54:41;;;;;;;21.58;6.93;;;8.80;98.70;;;;;;4859218;29;20053;-85
2022/11/29 07:57:08;;;;;;;21.13;6.80;;;8.70;98.70;;;;;;4871191;29;20052;-85
2022/11/29 07:59:38;;;;;;;19.67;6.70;;;8.70;98.70;;;;;;4877630;29;20069;-85
2022/11/29 08:02:05;;;;;;;18.95;6.53;;;8.80;98.70;;;;;;4862190;29;20577;-85
2022/11/29 08:04:42;;;;;;;19.23;5.47;;;8.80;98.70;;;;;;4873203;29;20049;-86
2022/11/29 08:07:11;;;;;;;16.08;4.55;;;8.80;98.70;;;;;;4859101;29;20201;-85
2022/11/29 08:09:38;;;;;;;19.38;5.22;;;8.80;98.80;;;;;;4872728;29;20451;-85
2022/11/29 08:12:05;;;;;;;17.45;5.60;;;8.80;98.70;;;;;;4858668;29;20061;-86
2022/11/29 08:14:34;;;;;;;15.55;5.07;;;8.80;98.70;;;;;;4861305;29;20054;-86
2022/11/29 08:17:01;;;;;;;14.40;4.30;;;8.80;98.70;;;;;;4856837;29;20537;-86
2022/11/29 08:19:28;;;;;;;13.90;4.85;;;8.80;98.70;;;;;;4869441;29;20078;-86
2022/11/29 08:21:55;;;;;;;11.77;3.80;;;8.90;98.80;;;;;;4870809;29;20073;-85
2022/11/29 08:24:22;;;;;;;15.80;4.68;;;8.90;98.80;;;;;;4871167;29;20073;-85
2022/11/29 08:26:49;;;;;;;13.90;3.83;;;8.90;98.70;;;;;;4856734;29;20524;-85
2022/11/29 08:29:20;;;;;;;12.20;4.55;;;8.90;98.70;;;;;;4861669;29;20135;-85
2022/11/29 08:31:52;;;;;;;19.05;6.00;;;9.00;98.70;;;;;;4877116;29;20143;-86
2022/11/29 08:34:23;;;;;;;18.80;6.47;;;9.00;98.70;;;;;;4866659;29;20546;-86
2022/11/29 08:36:53;;;;;;;15.93;4.63;;;8.90;98.70;;;;;;4873498;29;20108;-85
2022/11/29 08:39:23;;;;;;;15.68;6.00;;;8.90;98.70;;;;;;4862070;29;20053;-86
2022/11/29 08:41:50;;;;;;;14.40;4.75;;;8.90;98.70;;;;;;4863978;29;20052;-85
2022/11/29 08:44:19;;;;;;;16.23;5.00;;;8.90;98.70;;;;;;4857708;29;20082;-86
2022/11/29 08:49:31;;;;;;;21.05;6.70;;;9.00;98.70;;;;;;4875844;29;20508;-85
2022/11/29 08:54:58;;;;;;;13.27;4.40;;;8.90;98.60;;;;;;4839368;29;20170;-91
2022/11/29 08:57:30;;;;;;;13.77;5.25;;;8.90;98.70;;;;;;4849738;29;20536;-91
2022/11/29 09:00:06;;;;;;;18.48;6.28;;;8.90;98.60;;;;;;4876558;29;20116;-90
2022/11/29 09:02:35;;;;;;;19.67;6.28;;;8.90;98.60;;;;;;4878369;29;20472;-90
2022/11/29 09:05:04;;;;;;;20.17;6.70;;;9.00;98.60;;;;;;4878176;29;20053;-90
2022/11/29 09:07:31;;;;;;;13.88;4.68;;;8.90;98.60;;;;;;4878014;29;20109;-90
2022/11/29 09:10:03;;;;;;;16.52;5.20;;;8.90;98.60;;;;;;4871496;29;20053;-90
2022/11/29 09:12:34;;;;;;;15.35;5.38;;;9.00;98.60;;;;;;4870491;29;20076;-90
2022/11/29 09:15:04;;;;;;;19.83;6.30;;;9.00;98.50;;;;;;4849054;29;20473;-90
2022/11/29 09:17:31;;;;;;;18.60;6.15;;;9.00;98.50;;;;;;4866009;29;20053;-91
2022/11/29 09:19:58;;;;;;;22.15;7.82;;;8.90;98.50;;;;;;4873192;29;20053;-90
2022/11/29 09:22:26;;;;;;;19.85;6.63;;;8.90;98.50;;;;;;4849137;29;20054;-90
2022/11/29 09:24:53;;;;;;;17.90;6.63;;;8.90;98.50;;;;;;4844974;29;20045;-91
2022/11/29 09:27:23;;;;;;;21.30;7.38;;;8.90;98.50;;;;;;4864792;29;20049;-91
2022/11/29 09:29:50;;;;;;;18.88;6.07;;;8.90;98.50;;;;;;4852463;29;20049;-90
2022/11/29 09:32:17;;;;;;;18.48;6.63;;;8.90;98.50;;;;;;4859386;29;20054;-91
2022/11/29 09:34:44;;;;;;;21.65;7.20;;;8.90;98.40;;;;;;4868909;29;20054;-91
2022/11/29 09:37:15;;;;;;;21.13;7.22;;;8.90;98.40;;;;;;4863056;29;20045;-90
2022/11/29 09:39:42;;;;;;;20.38;7.22;;;9.00;98.40;;;;;;4875347;29;20053;-90
2022/11/29 09:42:18;;;;;;;17.65;6.85;;;9.00;98.40;;;;;;4881528;29;20056;-90
2022/11/29 09:45:08;;;;;;;16.27;6.00;;;9.00;98.40;;;;;;4869209;29;20058;-90
2022/11/29 09:47:50;;;;;;;14.48;5.07;;;9.00;98.30;;;;;;4869375;29;20049;-90
2022/11/29 09:50:41;;;;;;;11.02;4.25;;;9.00;98.40;;;;;;4868373;29;20045;-91
2022/11/29 09:53:20;;;;;;;13.85;4.72;;;9.10;98.40;;;;;;4876018;29;20065;-90
2022/11/29 09:55:59;;;;;;;22.25;6.78;;;9.10;98.30;;;;;;4881260;29;20053;-90
2022/11/29 09:58:49;;;;;;;17.63;6.25;;;9.10;98.30;;;;;;4881255;29;20068;-91
2022/11/29 10:01:21;;;;;;;15.88;4.70;;;9.20;98.30;;;;;;4877818;29;20059;-90
2022/11/29 10:03:51;;;;;;;;;;;9.10;98.30;;;;;;4855005;29;20083;-90
2022/11/29 10:06:31;;;;;;;16.90;6.18;;;9.20;98.30;;;;;;4875517;29;19928;-91
2022/11/29 10:09:03;;;;;;;17.02;4.93;;;9.20;98.30;;;;;;4870872;29;20061;-91
2022/11/29 10:11:40;;;;;;;14.02;5.45;;;9.20;98.60;;;;;;4873839;29;20165;-90
2022/11/29 10:14:19;;;;;;;12.45;4.07;;;9.30;98.30;;;;;;4865604;29;20053;-90
2022/11/29 10:16:58;;;;;;;12.57;4.72;;;9.30;98.30;;;;;;4849523;29;20198;-86
2022/11/29 10:19:41;;;;;;;10.68;3.67;;;9.40;98.30;;;;;;4867535;29;20140;-85
2022/11/29 10:22:14;;;;;;;11.43;3.65;;;9.40;98.20;;;;;;4869327;29;20059;-85
2022/11/29 10:24:43;;;;;;;;;;;9.40;98.20;;;;;;4866896;29;20437;-85
2022/11/29 10:27:18;;;;;;;11.40;3.47;;;9.50;98.30;;;;;;4878296;29;20412;-90
2022/11/29 10:29:49;;;;;;;11.15;3.47;;;9.40;98.20;;;;;;4871462;29;20066;-89
2022/11/29 10:32:20;;;;;;;10.40;3.80;;;9.40;98.20;;;;;;4842713;29;20058;-90
2022/11/29 10:34:48;;;;;;;11.25;3.85;;;9.50;98.20;;;;;;4862389;29;20053;-90
2022/11/29 10:37:20;;;;;;;13.55;4.22;;;9.60;98.20;;;;;;4874229;29;20073;-90
2022/11/29 10:39:50;;;;;;;9.55;2.58;;;9.60;98.10;;;;;;4846845;29;20057;-90
2022/11/29 10:45:23;;;;;;;7.78;2.53;;;9.70;98.10;;;;;;4874933;29;20483;-87
2022/11/29 10:47:52;;;;;;;11.30;3.42;;;9.80;98.00;;;;;;4863246;29;20413;-86
2022/11/29 10:50:26;;;;;;;8.82;3.55;;;9.80;98.00;;;;;;4875760;29;20041;-86
2022/11/29 10:52:58;;;;;;;10.95;2.90;;;9.80;98.00;;;;;;4878061;29;20110;-86
2022/11/29 10:55:30;;;;;;;9.25;3.83;;;9.80;98.00;;;;;;4862955;29;20057;-85
2022/11/29 10:58:14;;;;;;;9.65;2.72;;;9.80;98.00;;;;;;4861529;29;20083;-85
2022/11/29 11:00:58;;;;;;;12.95;4.55;;;9.90;98.00;;;;;;4855488;29;20056;-85
2022/11/29 11:03:49;;;;;;;12.90;4.65;;;9.90;97.90;;;;;;4856488;29;20049;-85
2022/11/29 11:06:24;;;;;;;17.63;6.90;;;9.90;97.90;;;;;;4862821;29;20053;-85
2022/11/29 11:09:09;;;;;;;15.00;5.45;;;9.80;97.70;;;;;;4852823;29;20053;-85
2022/11/29 11:11:38;;;;;;;20.17;7.13;;;9.70;97.80;;;;;;4857156;29;20081;-85
2022/11/29 11:14:36;;;;;;;18.75;6.18;;;9.70;97.90;;;;;;4870026;29;20590;-84
2022/11/29 11:17:26;;;;;;;20.38;7.40;;;9.70;97.80;;;;;;4856442;29;20174;-84
2022/11/29 11:19:54;;;;;;;11.75;5.38;;;9.70;97.80;;;;;;4876736;29;20049;-84
2022/11/29 11:22:24;;;;;;;10.75;4.18;;;9.70;97.90;;;;;;4864406;29;20045;-89
2022/11/29 11:25:02;;;;;;;13.32;4.47;;;9.70;97.80;;;;;;4863745;29;20139;-89
2022/11/29 11:27:36;;;;;;;11.80;4.18;;;9.80;97.80;;;;;;4860635;29;20052;-89
2022/11/29 11:30:17;;;;;;;15.93;5.32;;;9.80;97.80;;;;;;4871406;29;20048;-89
2022/11/29 11:33:15;;;;;;;11.40;4.30;;;9.80;97.80;;;;;;4857833;29;20058;-90
2022/11/29 11:36:17;;;;;;;9.48;3.60;;;9.80;97.80;;;;;;4865987;29;20209;-89
2022/11/29 11:39:26;;;;;;;7.18;2.80;;;9.80;97.80;;;;;;4873314;29;20073;-89
2022/11/29 11:44:49;;;;;;;8.25;2.95;;;9.80;97.90;;;;;;4859453;29;20053;-90
2022/11/29 11:47:27;;;;;;;8.60;3.38;;;9.80;97.90;;;;;;4870018;29;20041;-90
2022/11/29 11:50:03;;;;;;;11.40;3.28;;;9.90;97.90;;;;;;4859804;29;20106;-90
2022/11/29 11:52:52;;;;;;;7.72;3.30;;;9.90;97.90;;;;;;4866866;29;20073;-90
2022/11/29 11:55:35;;;;;;;8.60;2.85;;;10.10;97.90;;;;;;4859315;29;20140;-93
2022/11/29 11:58:16;;;;;;;10.68;3.92;;;10.10;97.70;;;;;;4860887;29;20080;-92
2022/11/29 12:00:55;;;;;;;11.13;3.97;;;10.10;97.60;;;;;;4848136;29;20118;-92
2022/11/29 12:03:54;;;;;;;12.80;5.45;;;10.10;97.90;;;;;;4853955;29;20049;-90
2022/11/29 12:06:47;;;;;;;16.27;7.40;;;10.10;97.50;;;;;;4861880;29;20089;-93
2022/11/29 12:10:05;;;;;;;15.55;6.63;;;10.00;97.40;;;;;;4867348;29;20057;-92
2022/11/29 12:12:45;;;;;;;15.75;5.97;;;9.90;97.50;;;;;;4855510;29;20055;-92
2022/11/29 12:15:32;;;;;;;13.15;5.68;;;9.90;97.60;;;;;;4865088;29;20049;-91
2022/11/29 12:18:19;;;;;;;13.07;5.60;;;9.90;97.60;;;;;;4857453;29;20059;-90
2022/11/29 12:20:54;;;;;;;12.27;4.78;;;9.90;97.70;;;;;;4865727;29;20570;-90
2022/11/29 12:23:27;;;;;;;15.57;6.38;;;10.00;97.60;;;;;;4860708;29;20068;-84
2022/11/29 12:26:05;;;;;;;13.23;5.80;;;10.00;97.60;;;;;;4873754;29;20081;-85
2022/11/29 12:28:37;;;;;;;12.27;5.40;;;10.00;97.60;;;;;;4861724;29;20045;-83
2022/11/29 12:31:10;;;;;;;11.50;5.03;;;10.00;97.60;;;;;;4858346;29;20049;-85
2022/11/29 12:33:58;;;;;;;9.07;3.42;;;10.10;97.60;;;;;;4877231;29;20441;-85
2022/11/29 12:36:32;;;;;;;7.43;2.92;;;10.10;97.60;;;;;;4879084;29;20063;-86
2022/11/29 12:39:19;;;;;;;9.60;2.65;;;10.20;97.60;;;;;;4870901;29;20527;-87
2022/11/29 12:41:52;;;;;;;8.05;3.65;;;10.30;97.50;;;;;;4872207;29;20065;-90
2022/11/29 12:44:38;;;;;;;17.63;6.97;;;10.30;97.50;;;;;;4859523;29;20081;-85
2022/11/29 12:47:31;;;;;;;16.23;6.22;;;10.30;97.30;;;;;;4876872;29;20045;-88
2022/11/29 12:50:30;;;;;;;15.55;7.22;;;10.20;97.40;;;;;;4863188;29;20059;-88
2022/11/29 12:53:07;;;;;;;15.13;6.47;;;10.10;97.50;;;;;;4877512;29;20146;-87
2022/11/29 12:56:02;;;;;;;11.88;5.88;;;10.00;97.50;;;;;;4877809;29;20116;-88
2022/11/29 12:59:06;;;;;;;14.30;5.90;;;10.00;97.60;;;;;;4868311;29;20157;-86
2022/11/29 13:01:45;;;;;;;10.93;4.10;;;10.00;97.60;;;;;;4855105;29;20105;-85
2022/11/29 13:04:43;;;;;;;11.30;4.07;;;9.90;97.60;;;;;;4871692;29;20041;-86
2022/11/29 13:07:35;;;;;;;10.35;4.05;;;10.00;97.60;;;;;;4858853;29;20161;-90
2022/11/29 13:10:42;;;;;;;10.68;3.40;;;10.10;97.60;;;;;;4857374;29;20041;-89
2022/11/29 13:13:31;;;;;;;12.50;4.75;;;10.10;97.50;;;;;;4864572;29;20065;-85
2022/11/29 13:16:10;;;;;;;14.52;4.68;;;10.10;97.50;;;;;;4881622;29;20060;-88
2022/11/29 13:19:07;;;;;;;12.77;5.28;;;10.00;97.50;;;;;;4844014;29;20072;-85
2022/11/29 13:21:45;;;;;;;9.88;4.47;;;10.00;97.50;;;;;;4860642;29;20058;-85
2022/11/29 13:24:22;;;;;;;9.82;3.90;;;10.00;97.50;;;;;;4873814;29;20152;-86
2022/11/29 13:26:55;;;;;;;8.70;3.63;;;10.00;97.50;;;;;;4862830;29;20088;-84
2022/11/29 13:29:22;;;;;;;8.57;3.78;;;9.90;97.50;;;;;;4881274;29;20041;-91
2022/11/29 13:31:54;;;;;;;12.70;4.85;;;9.90;97.60;;;;;;4845632;29;20553;-85
2022/11/29 13:34:35;;;;;;;14.52;6.05;;;9.80;97.60;;;;;;4872701;29;20057;-83
2022/11/29 13:37:34;;;;;;;12.52;5.18;;;9.60;97.60;;;;;;4864997;29;20059;-87
2022/11/29 13:40:45;;;;;;;13.32;5.18;;;9.60;97.70;;;;;;4881118;29;20057;-86
2022/11/29 13:43:19;;;;;;;;;;;9.50;97.70;;;;;;4874320;29;20546;-86
2022/11/29 13:46:12;;;;;;;9.02;3.53;;;9.50;97.80;;;;;;4861806;29;19924;-86
2022/11/29 13:48:47;;;;;;;6.05;3.35;;;9.50;98.10;;;;;;4862126;29;20049;-85
2022/11/29 13:51:39;;;;;;;8.80;3.38;;;9.50;97.90;;;;;;4873929;29;20578;-86
2022/11/29 13:54:29;;;;;;;9.93;3.30;;;9.50;98.20;;;;;;4861656;29;20061;-85
2022/11/29 13:57:02;;;;;;;7.22;2.70;;;9.60;97.80;;;;;;4847140;29;20053;-83
2022/11/29 13:59:34;;;;;;;6.30;2.40;;;9.60;97.80;;;;;;4863532;29;20082;-84
2022/11/29 14:02:03;;;;;;;10.15;3.92;;;9.60;97.80;;;;;;4861198;29;20097;-89
2022/11/29 14:04:37;;;;;;;9.20;3.50;;;9.70;97.70;;;;;;4872522;29;20061;-87
2022/11/29 14:07:18;;;;;;;7.75;3.05;;;9.70;97.70;;;;;;4858748;29;20059;-89
2022/11/29 14:09:59;;;;;;;7.63;3.10;;;9.70;97.70;;;;;;4879204;29;20484;-88